Time;durP1;ratioP1;P1;durP2;ratioP2;P2;SDS_P1;SDS_P2;PMS_P1;PMS_P2;Temp;Humidity;BMP_temperature;BMP_pressure;BME280_temperature;BME280_humidity;BME280_pressure;Samples;Min_cycle;Max_cycle;Signal;HPM_P1;HPM_P2
2021/03/07 10:24:31;;;;;;;10.17;8.50;;;16.60;41.50;;;;;;4947540;28;20469;-81
2021/03/07 10:27:02;;;;;;;10.03;8.43;;;16.40;42.80;;;;;;4937652;29;20474;-87
2021/03/07 10:29:30;;;;;;;11.33;9.00;;;15.60;43.70;;;;;;4937182;29;20428;-84
2021/03/07 10:32:09;;;;;;;11.40;8.57;;;15.90;43.20;;;;;;4937285;29;20838;-85
2021/03/07 10:34:38;;;;;;;10.43;9.23;;;16.10;43.00;;;;;;4937396;29;20446;-85
2021/03/07 10:37:05;;;;;;;10.83;8.87;;;17.40;42.90;;;;;;4937585;29;20416;-84
2021/03/07 10:39:33;;;;;;;8.67;7.63;;;18.30;40.70;;;;;;4937237;29;20510;-85
2021/03/07 10:42:07;;;;;;;10.07;8.37;;;19.40;39.30;;;;;;4937670;29;20466;-85
2021/03/07 10:44:33;;;;;;;9.83;8.53;;;20.20;37.00;;;;;;4937565;29;20439;-85
2021/03/07 10:47:14;;;;;;;11.40;9.07;;;20.50;36.40;;;;;;4937336;29;20889;-85
2021/03/07 10:49:40;;;;;;;9.43;8.53;;;22.00;34.10;;;;;;4937533;29;20498;-85
2021/03/07 10:52:06;;;;;;;8.93;7.57;;;21.90;33.40;;;;;;4937478;29;20427;-86
2021/03/07 10:54:34;;;;;;;8.67;7.77;;;21.60;33.80;;;;;;4937153;29;20416;-86
2021/03/07 10:57:00;;;;;;;10.30;8.63;;;21.60;33.10;;;;;;4946485;29;20475;-85
2021/03/07 10:59:26;;;;;;;8.80;7.90;;;21.90;32.70;;;;;;4937302;29;20478;-85
2021/03/07 11:01:52;;;;;;;8.77;7.87;;;22.50;32.10;;;;;;4937397;29;20451;-85
2021/03/07 11:04:19;;;;;;;9.35;8.30;;;21.50;32.90;;;;;;4937061;29;20490;-85
2021/03/07 11:06:45;;;;;;;8.20;7.40;;;22.30;32.60;;;;;;4937161;29;20602;-85
2021/03/07 11:09:11;;;;;;;8.77;7.87;;;21.80;32.50;;;;;;4937116;29;20203;-85
2021/03/07 11:11:39;;;;;;;8.50;7.70;;;21.10;32.90;;;;;;4936830;29;20191;-85
2021/03/07 11:14:06;;;;;;;9.37;8.30;;;19.50;34.30;;;;;;4936744;29;20956;-85
2021/03/07 11:16:32;;;;;;;9.83;8.90;;;18.70;35.40;;;;;;4936925;29;20479;-84
2021/03/07 11:18:58;;;;;;;9.63;7.67;;;17.60;36.40;;;;;;4936589;29;20478;-85
2021/03/07 11:21:24;;;;;;;8.30;7.50;;;16.30;36.30;;;;;;4937337;29;20455;-84
2021/03/07 11:23:51;;;;;;;9.33;8.00;;;15.60;38.70;;;;;;4936312;29;20463;-84
2021/03/07 11:26:17;;;;;;;8.80;7.90;;;15.30;39.40;;;;;;4936516;29;20995;-83
2021/03/07 11:28:44;;;;;;;9.53;8.00;;;14.90;40.20;;;;;;4936561;29;20443;-84
2021/03/07 11:31:10;;;;;;;10.53;8.30;;;14.10;41.20;;;;;;4936643;29;20420;-84
2021/03/07 11:33:36;;;;;;;10.50;7.77;;;13.60;41.50;;;;;;4936310;29;20412;-83
2021/03/07 11:36:03;;;;;;;11.73;8.20;;;13.40;41.20;;;;;;4936170;29;20845;-83
2021/03/07 11:38:29;;;;;;;9.63;8.60;;;13.00;42.30;;;;;;4936069;29;20507;-84
2021/03/07 11:40:55;;;;;;;12.90;9.20;;;12.60;44.00;;;;;;4935852;29;20911;-84
2021/03/07 11:43:22;;;;;;;9.70;7.40;;;12.60;44.40;;;;;;4936096;29;20931;-84
2021/03/07 11:45:49;;;;;;;11.70;8.00;;;12.50;44.00;;;;;;4936475;29;20459;-84
2021/03/07 11:48:15;;;;;;;11.33;7.90;;;12.00;44.60;;;;;;4936167;29;20447;-84
2021/03/07 11:50:41;;;;;;;10.87;8.13;;;11.70;45.50;;;;;;4936240;29;20469;-84
2021/03/07 11:53:07;;;;;;;9.43;7.33;;;11.70;45.50;;;;;;4936703;29;20443;-84
2021/03/07 11:55:34;;;;;;;11.00;7.70;;;11.60;46.20;;;;;;4936197;29;20471;-84
2021/03/07 11:58:00;;;;;;;10.17;7.93;;;11.40;47.30;;;;;;4935758;29;20428;-83
2021/03/07 12:00:26;;;;;;;13.10;9.00;;;11.20;47.00;;;;;;4936147;29;20435;-84
2021/03/07 12:02:53;;;;;;;8.73;7.50;;;11.10;47.50;;;;;;4935951;29;20483;-84
2021/03/07 12:05:21;;;;;;;12.83;8.83;;;11.10;48.20;;;;;;4936793;29;20920;-89
2021/03/07 12:07:47;;;;;;;11.00;8.03;;;11.00;49.10;;;;;;4937293;29;20427;-88
2021/03/07 12:10:14;;;;;;;11.63;8.10;;;10.90;49.00;;;;;;4936972;29;20435;-88
2021/03/07 12:12:40;;;;;;;11.07;8.57;;;10.90;49.20;;;;;;4936923;29;20450;-88
2021/03/07 12:15:08;;;;;;;13.40;9.10;;;10.90;47.90;;;;;;4937323;29;20858;-88
2021/03/07 12:17:34;;;;;;;13.27;8.43;;;10.80;47.60;;;;;;4936557;29;20427;-86
2021/03/07 12:20:04;;;;;;;11.07;8.17;;;10.60;48.20;;;;;;4937055;29;20841;-88
2021/03/07 12:22:30;;;;;;;12.60;9.03;;;10.50;48.60;;;;;;4936998;29;20451;-88
2021/03/07 12:24:58;;;;;;;10.50;7.97;;;10.20;49.40;;;;;;4936238;29;20487;-88
2021/03/07 12:27:25;;;;;;;10.80;7.70;;;10.00;50.20;;;;;;4936570;29;20471;-88
2021/03/07 12:29:52;;;;;;;10.13;7.37;;;9.90;51.30;;;;;;4936329;29;20447;-89
2021/03/07 12:32:18;;;;;;;11.17;7.67;;;9.90;50.80;;;;;;4937085;29;20543;-88
2021/03/07 12:34:44;;;;;;;11.93;8.27;;;9.90;50.60;;;;;;4936582;29;20467;-89
2021/03/07 12:37:11;;;;;;;11.60;8.00;;;9.90;51.10;;;;;;4936283;29;20435;-88
2021/03/07 12:39:37;;;;;;;11.33;7.80;;;9.70;51.60;;;;;;4935957;29;20542;-88
2021/03/07 12:42:04;;;;;;;13.20;9.60;;;9.70;52.20;;;;;;4936534;29;20426;-88
2021/03/07 12:44:32;;;;;;;12.17;8.53;;;9.60;52.60;;;;;;4936333;29;20419;-88
2021/03/07 12:46:58;;;;;;;10.83;8.00;;;9.70;51.70;;;;;;4936601;29;20455;-88
2021/03/07 12:49:25;;;;;;;11.80;8.00;;;9.80;51.30;;;;;;4948406;29;20419;-91
2021/03/07 12:51:51;;;;;;;10.30;7.70;;;9.80;51.60;;;;;;4946280;29;20806;-90
2021/03/07 12:54:18;;;;;;;14.23;10.53;;;9.90;51.50;;;;;;4939567;29;20926;-90
2021/03/07 12:56:45;;;;;;;11.73;8.80;;;10.00;50.70;;;;;;4940259;29;20481;-90
2021/03/07 12:59:11;;;;;;;10.80;8.50;;;10.10;50.20;;;;;;4940189;29;20569;-91
2021/03/07 13:01:37;;;;;;;12.17;8.57;;;10.10;50.60;;;;;;4940548;29;20883;-90
2021/03/07 13:04:04;;;;;;;8.97;7.10;;;10.10;51.10;;;;;;4940255;29;20477;-90
2021/03/07 13:06:30;;;;;;;10.53;7.70;;;10.20;50.20;;;;;;4940196;29;20474;-90
2021/03/07 13:08:56;;;;;;;12.40;8.03;;;10.30;50.40;;;;;;4940209;29;20446;-90
2021/03/07 13:11:25;;;;;;;12.87;8.83;;;10.30;50.20;;;;;;4940804;29;20451;-90
2021/03/07 13:13:51;;;;;;;9.87;8.10;;;10.30;50.20;;;;;;4940035;29;20958;-90
2021/03/07 13:16:17;;;;;;;10.80;7.83;;;10.40;50.20;;;;;;4940171;29;20478;-90
2021/03/07 13:18:43;;;;;;;9.27;8.03;;;10.30;50.20;;;;;;4939987;29;20467;-90
2021/03/07 13:21:10;;;;;;;10.97;8.30;;;10.40;51.00;;;;;;4940757;29;20502;-90
2021/03/07 13:23:36;;;;;;;12.07;7.63;;;10.30;49.50;;;;;;4939708;29;20447;-90
2021/03/07 13:26:03;;;;;;;9.87;7.83;;;10.30;49.80;;;;;;4939717;29;20462;-90
2021/03/07 13:28:30;;;;;;;11.77;8.00;;;10.20;50.40;;;;;;4939840;29;20432;-91
2021/03/07 13:30:56;;;;;;;8.93;7.30;;;10.10;50.40;;;;;;4939930;29;20442;-90
2021/03/07 13:33:23;;;;;;;9.87;7.40;;;10.00;50.50;;;;;;4939420;29;20510;-91
2021/03/07 13:35:49;;;;;;;8.17;7.03;;;9.90;51.40;;;;;;4939568;29;20467;-91
2021/03/07 13:38:15;;;;;;;10.90;8.40;;;9.70;52.10;;;;;;4939719;29;20439;-91
2021/03/07 13:40:41;;;;;;;11.60;8.27;;;9.60;52.10;;;;;;4939927;29;20459;-91
2021/03/07 13:43:08;;;;;;;11.10;7.43;;;9.40;52.70;;;;;;4939589;29;20439;-91
2021/03/07 13:45:35;;;;;;;10.83;8.13;;;9.20;53.20;;;;;;4939683;29;20981;-91
2021/03/07 13:48:02;;;;;;;12.70;8.03;;;9.10;54.50;;;;;;4939434;29;20447;-91
2021/03/07 13:50:30;;;;;;;12.63;8.30;;;9.10;54.30;;;;;;4939845;29;20435;-91
2021/03/07 13:52:56;;;;;;;10.83;8.27;;;9.00;54.00;;;;;;4938442;29;20440;-83
2021/03/07 13:55:24;;;;;;;12.00;8.83;;;9.00;54.10;;;;;;4938244;29;20605;-83
2021/03/07 13:57:50;;;;;;;9.50;7.80;;;9.00;53.60;;;;;;4938121;29;20439;-83
2021/03/07 14:00:17;;;;;;;9.43;7.23;;;9.00;54.10;;;;;;4938241;29;20467;-83
2021/03/07 14:02:45;;;;;;;12.07;8.43;;;8.90;54.20;;;;;;4937668;29;20950;-83
2021/03/07 14:05:12;;;;;;;13.93;9.40;;;8.90;54.30;;;;;;4937791;29;20474;-83
2021/03/07 14:07:38;;;;;;;11.83;7.97;;;8.80;54.70;;;;;;4937683;29;20428;-82
2021/03/07 14:10:07;;;;;;;11.37;8.27;;;8.90;54.40;;;;;;4937974;29;20493;-83
2021/03/07 14:12:33;;;;;;;16.60;10.00;;;8.80;55.20;;;;;;4937694;29;20435;-83
2021/03/07 14:14:59;;;;;;;13.53;8.77;;;8.60;55.00;;;;;;4937929;29;20467;-83
2021/03/07 14:17:26;;;;;;;13.43;8.30;;;8.60;55.60;;;;;;4937474;29;20412;-83
2021/03/07 14:19:53;;;;;;;12.87;8.17;;;8.70;55.40;;;;;;4937633;29;20463;-83
2021/03/07 14:22:19;;;;;;;11.30;8.40;;;8.80;55.20;;;;;;4937575;29;20780;-82
2021/03/07 14:24:45;;;;;;;12.90;8.50;;;8.80;54.70;;;;;;4937380;29;20486;-83
2021/03/07 14:27:12;;;;;;;12.00;8.60;;;8.70;55.70;;;;;;4938137;29;20452;-83
2021/03/07 14:29:38;;;;;;;10.50;8.37;;;8.50;55.20;;;;;;4937635;29;20428;-83
2021/03/07 14:32:05;;;;;;;10.10;8.50;;;8.50;55.40;;;;;;4937226;29;20946;-83
2021/03/07 14:34:31;;;;;;;12.23;7.93;;;8.60;55.10;;;;;;4937250;29;20919;-84
2021/03/07 14:36:58;;;;;;;11.40;8.70;;;8.40;55.60;;;;;;4937531;29;20997;-84
2021/03/07 14:39:25;;;;;;;12.20;8.43;;;8.30;56.30;;;;;;4937483;29;20478;-84
2021/03/07 14:41:51;;;;;;;11.07;8.10;;;8.30;56.60;;;;;;4937475;29;20439;-84
2021/03/07 14:44:17;;;;;;;15.07;8.40;;;8.30;57.00;;;;;;4937753;29;20939;-88
2021/03/07 14:46:43;;;;;;;11.13;8.33;;;8.40;56.60;;;;;;4938094;29;20482;-88
2021/03/07 14:49:10;;;;;;;10.73;8.17;;;8.30;57.10;;;;;;4938040;29;20424;-88
2021/03/07 14:51:36;;;;;;;11.27;9.10;;;8.30;57.40;;;;;;4938368;29;20877;-88
2021/03/07 14:54:04;;;;;;;14.17;9.53;;;8.30;58.00;;;;;;4937960;29;20427;-88
2021/03/07 14:56:30;;;;;;;13.00;8.00;;;8.40;56.40;;;;;;4937245;29;20555;-83
2021/03/07 14:59:00;;;;;;;12.70;8.87;;;8.30;57.10;;;;;;4936977;29;20485;-83
2021/03/07 15:01:26;;;;;;;10.73;7.43;;;8.20;57.50;;;;;;4936508;29;20457;-84
2021/03/07 15:03:53;;;;;;;13.70;8.53;;;8.20;57.60;;;;;;4937197;29;20420;-86
2021/03/07 15:06:20;;;;;;;13.80;8.40;;;8.20;57.70;;;;;;4937361;29;21009;-86
2021/03/07 15:08:48;;;;;;;14.47;9.20;;;8.20;57.10;;;;;;4937679;29;20423;-87
2021/03/07 15:11:16;;;;;;;10.73;8.53;;;8.20;57.10;;;;;;4937983;29;20439;-87
2021/03/07 15:13:43;;;;;;;12.70;8.73;;;8.10;57.30;;;;;;4937303;29;20915;-87
2021/03/07 15:16:09;;;;;;;12.90;8.70;;;8.10;57.90;;;;;;4936963;29;20471;-84
2021/03/07 15:18:36;;;;;;;11.77;7.63;;;8.00;58.30;;;;;;4937320;29;20479;-88
2021/03/07 15:21:02;;;;;;;10.20;7.93;;;8.00;58.20;;;;;;4937194;29;20434;-83
2021/03/07 15:23:28;;;;;;;12.80;8.57;;;7.90;57.80;;;;;;4936657;29;20935;-84
2021/03/07 15:25:55;;;;;;;15.40;8.70;;;7.90;58.40;;;;;;4936541;29;21013;-82
2021/03/07 15:28:22;;;;;;;10.70;7.70;;;7.90;58.10;;;;;;4936508;29;20903;-87
2021/03/07 15:30:48;;;;;;;11.50;8.53;;;7.90;57.60;;;;;;4936983;29;20431;-87
2021/03/07 15:33:14;;;;;;;13.00;7.90;;;7.90;58.00;;;;;;4937073;29;20445;-83
2021/03/07 15:35:41;;;;;;;11.27;8.10;;;7.90;58.00;;;;;;4936556;29;20452;-83
2021/03/07 15:38:09;;;;;;;12.17;7.93;;;7.80;58.70;;;;;;4936827;29;20447;-83
2021/03/07 15:40:35;;;;;;;11.90;8.80;;;7.70;58.30;;;;;;4936157;29;20526;-83
2021/03/07 15:43:01;;;;;;;10.90;8.33;;;7.70;58.80;;;;;;4937104;29;20447;-88
2021/03/07 15:45:29;;;;;;;13.63;8.57;;;7.60;59.30;;;;;;4936985;29;20482;-87
2021/03/07 15:47:56;;;;;;;11.70;7.87;;;7.60;59.30;;;;;;4936947;29;20806;-83
2021/03/07 15:50:23;;;;;;;13.23;9.30;;;7.50;61.00;;;;;;4936158;29;20542;-83
2021/03/07 15:52:49;;;;;;;12.30;8.80;;;7.50;61.70;;;;;;4936464;29;20447;-83
2021/03/07 15:55:16;;;;;;;11.60;8.00;;;7.40;62.00;;;;;;4936465;29;20471;-86
2021/03/07 15:57:42;;;;;;;11.20;8.17;;;7.40;62.30;;;;;;4936633;29;20473;-83
2021/03/07 16:00:10;;;;;;;13.50;7.90;;;7.40;61.50;;;;;;4936433;29;20475;-87
2021/03/07 16:02:37;;;;;;;13.20;8.30;;;7.40;60.90;;;;;;4936539;29;20436;-84
2021/03/07 16:05:04;;;;;;;14.00;9.03;;;7.40;60.30;;;;;;4936317;29;20475;-87
2021/03/07 16:07:30;;;;;;;13.90;8.80;;;7.40;60.30;;;;;;4936041;29;21034;-83
2021/03/07 16:09:57;;;;;;;14.83;9.70;;;7.30;62.10;;;;;;4935989;29;20427;-83
2021/03/07 16:12:23;;;;;;;15.10;9.03;;;7.30;62.10;;;;;;4936090;29;20442;-83
2021/03/07 16:14:49;;;;;;;11.37;8.00;;;7.20;62.70;;;;;;4935892;29;20416;-83
2021/03/07 16:17:15;;;;;;;14.43;8.50;;;7.20;64.30;;;;;;4936429;29;20439;-83
2021/03/07 16:19:42;;;;;;;12.93;8.60;;;7.10;63.50;;;;;;4936103;29;20962;-86
2021/03/07 16:22:09;;;;;;;12.40;8.47;;;7.00;64.40;;;;;;4936669;29;20499;-83
2021/03/07 16:24:35;;;;;;;11.27;8.20;;;6.90;63.90;;;;;;4937600;29;20487;-87
2021/03/07 16:27:03;;;;;;;13.87;8.87;;;6.80;65.50;;;;;;4936372;29;20475;-87
2021/03/07 16:29:29;;;;;;;13.90;9.07;;;6.80;65.20;;;;;;4939635;29;20424;-87
2021/03/07 16:31:55;;;;;;;13.67;8.93;;;6.70;66.20;;;;;;4940298;29;20440;-83
2021/03/07 16:34:22;;;;;;;15.50;8.80;;;6.70;66.10;;;;;;4940009;29;20431;-83
2021/03/07 16:36:49;;;;;;;12.30;8.83;;;6.60;67.00;;;;;;4940382;29;20549;-88
2021/03/07 16:39:15;;;;;;;12.73;8.97;;;6.50;68.20;;;;;;4940103;29;20475;-83
2021/03/07 16:41:41;;;;;;;13.40;8.70;;;6.50;68.80;;;;;;4939973;29;20444;-83
2021/03/07 16:44:08;;;;;;;13.60;8.80;;;6.40;68.20;;;;;;4939829;29;20454;-87
2021/03/07 16:46:35;;;;;;;14.17;8.10;;;6.40;69.00;;;;;;4940038;29;20478;-87
2021/03/07 16:49:03;;;;;;;15.73;9.03;;;6.30;68.80;;;;;;4940270;29;20452;-87
2021/03/07 16:51:29;;;;;;;12.40;8.17;;;6.30;69.50;;;;;;4939864;29;20426;-87
2021/03/07 16:53:56;;;;;;;11.37;7.90;;;6.20;69.20;;;;;;4940221;29;20916;-88
2021/03/07 16:56:25;;;;;;;11.80;7.10;;;6.20;69.90;;;;;;4939498;29;20518;-83
2021/03/07 16:58:51;;;;;;;13.60;8.47;;;6.10;69.90;;;;;;4939792;29;20479;-83
2021/03/07 17:01:17;;;;;;;11.00;7.70;;;6.00;70.40;;;;;;4939655;29;20427;-87
2021/03/07 17:03:44;;;;;;;12.97;8.80;;;6.00;70.50;;;;;;4939833;29;20446;-87
2021/03/07 17:06:10;;;;;;;15.33;10.87;;;6.00;67.20;;;;;;4939749;29;20455;-88
2021/03/07 17:08:36;;;;;;;16.60;11.03;;;5.90;68.10;;;;;;4939402;29;20420;-83
2021/03/07 17:11:03;;;;;;;18.23;10.30;;;5.80;69.60;;;;;;4939322;29;20419;-83
2021/03/07 17:13:30;;;;;;;13.27;8.90;;;5.80;69.20;;;;;;4939864;29;20419;-87
2021/03/07 17:15:56;;;;;;;15.07;11.10;;;5.70;69.50;;;;;;4939795;29;20474;-87
2021/03/07 17:18:22;;;;;;;16.40;10.50;;;5.60;70.00;;;;;;4939898;29;20424;-88
2021/03/07 17:20:49;;;;;;;14.00;9.23;;;5.60;70.10;;;;;;4940888;29;20476;-87
2021/03/07 17:23:16;;;;;;;15.80;9.70;;;5.50;71.40;;;;;;4939774;29;20805;-83
2021/03/07 17:25:42;;;;;;;14.50;9.77;;;5.40;72.40;;;;;;4938817;29;20487;-87
2021/03/07 17:28:09;;;;;;;14.70;9.70;;;5.40;72.70;;;;;;4939676;29;20448;-87
2021/03/07 17:30:36;;;;;;;15.03;9.60;;;5.30;73.30;;;;;;4939379;29;20432;-87
2021/03/07 17:33:02;;;;;;;12.07;8.40;;;5.20;73.60;;;;;;4939060;29;20493;-84
2021/03/07 17:35:28;;;;;;;13.93;9.60;;;5.20;74.60;;;;;;4939093;29;20483;-85
2021/03/07 17:37:55;;;;;;;11.43;8.70;;;5.20;74.70;;;;;;4939162;29;20833;-84
2021/03/07 17:40:22;;;;;;;16.10;9.67;;;5.10;75.20;;;;;;4938254;29;20475;-86
2021/03/07 17:42:49;;;;;;;12.83;8.77;;;5.10;75.30;;;;;;4938968;29;20443;-86
2021/03/07 17:45:17;;;;;;;14.50;8.90;;;5.00;76.50;;;;;;4938993;29;20505;-84
2021/03/07 17:47:43;;;;;;;14.87;9.67;;;5.00;76.20;;;;;;4938559;29;20852;-86
2021/03/07 17:50:11;;;;;;;16.43;10.50;;;5.00;75.60;;;;;;4938902;29;20423;-86
2021/03/07 17:52:37;;;;;;;18.63;10.63;;;5.00;76.30;;;;;;4939207;29;20426;-86
2021/03/07 17:55:04;;;;;;;18.10;10.00;;;4.90;76.50;;;;;;4938495;29;20494;-85
2021/03/07 17:57:31;;;;;;;17.23;10.40;;;4.90;76.60;;;;;;4939262;29;20443;-83
2021/03/07 17:59:57;;;;;;;13.53;8.97;;;4.90;76.10;;;;;;4938040;29;20463;-84
2021/03/07 18:02:24;;;;;;;17.30;9.30;;;4.90;76.00;;;;;;4938394;29;20990;-83
2021/03/07 18:04:50;;;;;;;18.20;10.10;;;5.00;77.00;;;;;;4938286;29;20831;-83
2021/03/07 18:07:16;;;;;;;17.53;10.23;;;5.00;77.00;;;;;;4938163;29;20431;-83
2021/03/07 18:09:43;;;;;;;14.07;9.30;;;5.10;77.40;;;;;;4938432;29;20431;-86
2021/03/07 18:12:10;;;;;;;16.57;10.20;;;5.10;76.20;;;;;;4938234;29;20479;-87
2021/03/07 18:14:37;;;;;;;15.90;8.87;;;5.20;74.10;;;;;;4938650;29;20414;-86
2021/03/07 18:17:04;;;;;;;14.20;9.30;;;5.20;74.50;;;;;;4938560;29;20483;-86
2021/03/07 18:19:31;;;;;;;18.80;9.50;;;5.30;75.60;;;;;;4938102;29;20557;-83
2021/03/07 18:21:58;;;;;;;14.13;9.40;;;5.20;75.30;;;;;;4937776;29;20796;-85
2021/03/07 18:24:24;;;;;;;18.43;8.83;;;5.20;75.00;;;;;;4937631;29;20487;-83
2021/03/07 18:26:50;;;;;;;18.43;11.00;;;5.20;75.40;;;;;;4937614;29;20459;-84
2021/03/07 18:29:17;;;;;;;19.50;11.80;;;5.20;75.70;;;;;;4937936;29;20450;-84
2021/03/07 18:31:43;;;;;;;21.10;11.90;;;5.10;75.40;;;;;;4938243;29;20448;-83
2021/03/07 18:34:09;;;;;;;19.63;11.13;;;5.00;76.20;;;;;;4938113;29;20447;-84
2021/03/07 18:36:36;;;;;;;15.67;10.67;;;5.00;76.00;;;;;;4937636;29;20471;-84
2021/03/07 18:39:04;;;;;;;16.80;11.47;;;4.90;76.60;;;;;;4937437;29;21081;-83
2021/03/07 18:41:30;;;;;;;18.83;10.47;;;4.80;77.60;;;;;;4937610;29;20783;-84
2021/03/07 18:43:56;;;;;;;18.30;11.00;;;4.70;77.80;;;;;;4937661;29;20442;-84
2021/03/07 18:46:23;;;;;;;18.43;10.90;;;4.60;77.50;;;;;;4937325;29;20459;-84
2021/03/07 18:48:49;;;;;;;16.00;10.57;;;4.60;79.40;;;;;;4937319;29;20963;-84
2021/03/07 18:51:15;;;;;;;18.40;10.93;;;4.50;79.10;;;;;;4936606;29;20451;-84
2021/03/07 18:53:43;;;;;;;16.23;10.27;;;4.50;80.10;;;;;;4937061;29;20951;-84
2021/03/07 18:56:09;;;;;;;15.47;10.40;;;4.40;80.80;;;;;;4937420;29;20554;-83
2021/03/07 18:58:36;;;;;;;21.57;10.80;;;4.40;81.20;;;;;;4937471;29;20439;-87
2021/03/07 19:01:04;;;;;;;20.00;11.13;;;4.30;81.80;;;;;;4937686;29;20505;-87
2021/03/07 19:03:30;;;;;;;18.53;11.00;;;4.30;82.40;;;;;;4937867;29;20511;-87
2021/03/07 19:05:56;;;;;;;21.07;10.60;;;4.40;82.70;;;;;;4937019;29;21022;-83
2021/03/07 19:08:23;;;;;;;17.50;11.07;;;4.40;82.80;;;;;;4937111;29;20467;-84
2021/03/07 19:10:50;;;;;;;17.40;10.90;;;4.40;82.40;;;;;;4937145;29;20447;-87
2021/03/07 19:13:16;;;;;;;22.93;11.60;;;4.40;81.90;;;;;;4937457;29;20458;-87
2021/03/07 19:15:43;;;;;;;14.00;10.20;;;4.40;82.40;;;;;;4937317;29;20482;-84
2021/03/07 19:18:10;;;;;;;20.60;12.37;;;4.50;83.20;;;;;;4936993;29;20447;-83
2021/03/07 19:20:36;;;;;;;19.20;11.70;;;4.50;83.60;;;;;;4936858;29;20483;-84
2021/03/07 19:23:03;;;;;;;20.20;11.67;;;4.60;82.50;;;;;;4936528;29;20462;-84
2021/03/07 19:25:29;;;;;;;15.43;10.13;;;4.60;82.90;;;;;;4936564;29;20491;-84
2021/03/07 19:27:56;;;;;;;19.77;10.60;;;4.60;82.30;;;;;;4936658;29;20458;-84
2021/03/07 19:30:23;;;;;;;17.37;10.43;;;4.50;83.20;;;;;;4937030;29;20448;-87
2021/03/07 19:32:50;;;;;;;17.97;11.27;;;4.50;83.50;;;;;;4937177;29;20446;-84
2021/03/07 19:35:16;;;;;;;17.70;11.00;;;4.40;82.60;;;;;;4936754;29;20487;-84
2021/03/07 19:37:42;;;;;;;18.40;11.20;;;4.40;84.50;;;;;;4936339;29;20918;-84
2021/03/07 19:40:09;;;;;;;15.43;10.00;;;4.40;84.20;;;;;;4936295;29;21011;-84
2021/03/07 19:42:36;;;;;;;17.10;10.47;;;4.40;84.40;;;;;;4937296;29;20510;-87
2021/03/07 19:45:03;;;;;;;17.67;10.50;;;4.40;83.90;;;;;;4936947;29;20584;-87
2021/03/07 19:47:30;;;;;;;21.63;10.07;;;4.40;83.50;;;;;;4936936;29;20459;-85
2021/03/07 19:49:56;;;;;;;16.87;11.20;;;4.30;84.10;;;;;;4936032;29;20948;-84
2021/03/07 19:52:23;;;;;;;17.10;10.63;;;4.30;83.60;;;;;;4935929;29;20462;-83
2021/03/07 19:54:49;;;;;;;21.93;11.70;;;4.20;84.00;;;;;;4936486;29;20455;-88
2021/03/07 19:57:15;;;;;;;17.37;11.27;;;4.10;84.30;;;;;;4936588;29;20468;-85
2021/03/07 19:59:42;;;;;;;19.50;11.87;;;4.00;84.70;;;;;;4936192;29;20483;-84
2021/03/07 20:02:09;;;;;;;22.37;12.37;;;4.00;85.40;;;;;;4935499;29;20829;-84
2021/03/07 20:04:35;;;;;;;21.10;12.30;;;3.90;85.30;;;;;;4936082;29;20458;-83
2021/03/07 20:07:01;;;;;;;18.47;11.30;;;3.80;85.50;;;;;;4935935;29;20478;-83
2021/03/07 20:09:28;;;;;;;19.73;12.87;;;3.80;86.00;;;;;;4936269;29;20451;-86
2021/03/07 20:11:54;;;;;;;18.70;11.57;;;3.70;86.90;;;;;;4936710;29;20451;-86
2021/03/07 20:14:20;;;;;;;18.03;11.90;;;3.60;87.90;;;;;;4936105;29;20439;-85
2021/03/07 20:16:46;;;;;;;24.90;13.50;;;3.50;88.40;;;;;;4935913;29;20474;-85
2021/03/07 20:19:13;;;;;;;19.40;12.80;;;3.50;88.40;;;;;;4936321;29;20481;-85
2021/03/07 20:21:39;;;;;;;18.77;11.70;;;3.40;89.00;;;;;;4936089;29;21002;-88
2021/03/07 20:24:07;;;;;;;23.57;14.80;;;3.30;89.80;;;;;;4936542;29;20494;-85
2021/03/07 20:26:33;;;;;;;21.97;12.90;;;3.20;90.10;;;;;;4936027;29;20463;-84
2021/03/07 20:28:59;;;;;;;19.80;12.80;;;3.10;90.40;;;;;;4936030;29;20455;-85
2021/03/07 20:31:25;;;;;;;22.40;12.57;;;3.10;90.90;;;;;;4936448;29;20938;-85
2021/03/07 20:33:52;;;;;;;23.00;13.17;;;3.10;90.90;;;;;;4936069;29;20433;-85
2021/03/07 20:36:19;;;;;;;21.47;13.70;;;3.00;91.00;;;;;;4935921;29;20471;-85
2021/03/07 20:38:45;;;;;;;23.27;13.60;;;3.00;91.00;;;;;;4935989;29;20421;-85
2021/03/07 20:41:11;;;;;;;25.47;14.10;;;2.90;91.70;;;;;;4935596;29;20501;-85
2021/03/07 20:43:37;;;;;;;20.83;12.60;;;2.90;91.90;;;;;;4935922;29;20522;-84
2021/03/07 20:46:04;;;;;;;20.80;12.63;;;2.90;91.70;;;;;;4935809;29;20520;-85
2021/03/07 20:48:30;;;;;;;22.23;12.70;;;2.90;91.80;;;;;;4935724;29;20946;-86
2021/03/07 20:50:56;;;;;;;22.03;12.53;;;2.90;91.90;;;;;;4938013;29;20455;-86
2021/03/07 20:53:23;;;;;;;22.10;12.97;;;2.90;92.30;;;;;;4935857;29;20459;-85
2021/03/07 20:55:50;;;;;;;20.80;12.80;;;2.90;92.10;;;;;;4935870;29;20792;-86
2021/03/07 20:58:16;;;;;;;21.60;13.27;;;2.90;92.10;;;;;;4936129;29;20514;-86
2021/03/07 21:00:42;;;;;;;21.67;12.20;;;2.80;92.10;;;;;;4936081;29;20491;-86
2021/03/07 21:03:08;;;;;;;26.83;12.60;;;2.80;92.40;;;;;;4936343;29;20781;-86
2021/03/07 21:05:34;;;;;;;19.37;12.00;;;2.80;92.50;;;;;;4935976;29;20434;-88
2021/03/07 21:08:01;;;;;;;24.20;14.77;;;2.80;92.30;;;;;;4936251;29;20439;-88
2021/03/07 21:10:28;;;;;;;27.60;15.07;;;2.80;92.90;;;;;;4936048;29;20451;-86
2021/03/07 21:12:54;;;;;;;20.80;12.50;;;2.60;93.40;;;;;;4935520;29;20451;-86
2021/03/07 21:15:21;;;;;;;21.17;11.57;;;2.50;94.40;;;;;;4938558;29;20479;-86
2021/03/07 21:17:47;;;;;;;23.10;13.50;;;2.40;94.70;;;;;;4939040;29;20493;-85
2021/03/07 21:20:14;;;;;;;23.50;12.93;;;2.40;95.20;;;;;;4939132;29;20458;-85
2021/03/07 21:22:41;;;;;;;23.17;12.57;;;2.30;95.20;;;;;;4938961;29;20962;-84
2021/03/07 21:25:09;;;;;;;18.50;12.83;;;2.30;95.80;;;;;;4939187;29;20487;-84
2021/03/07 21:27:36;;;;;;;24.90;12.80;;;2.20;96.20;;;;;;4939472;29;20447;-88
2021/03/07 21:30:04;;;;;;;19.70;12.20;;;2.20;96.60;;;;;;4939424;29;20447;-88
2021/03/07 21:32:30;;;;;;;19.60;12.50;;;2.20;96.80;;;;;;4939354;29;20435;-88
2021/03/07 21:34:56;;;;;;;22.87;13.77;;;2.10;97.30;;;;;;4939497;29;20514;-88
2021/03/07 21:37:23;;;;;;;20.17;12.33;;;2.10;97.70;;;;;;4939149;29;20439;-88
2021/03/07 21:39:49;;;;;;;20.97;12.00;;;2.10;97.70;;;;;;4938979;29;20482;-88
2021/03/07 21:42:15;;;;;;;19.43;12.57;;;2.00;98.30;;;;;;4938964;29;20459;-85
2021/03/07 21:44:42;;;;;;;18.60;12.20;;;2.00;98.50;;;;;;4938671;29;20451;-85
2021/03/07 21:47:08;;;;;;;21.23;11.80;;;2.00;98.80;;;;;;4938693;29;20460;-84
2021/03/07 21:49:35;;;;;;;18.60;11.00;;;2.00;99.00;;;;;;4938681;29;20434;-85
2021/03/07 21:52:01;;;;;;;22.07;12.50;;;1.90;99.20;;;;;;4938383;29;20482;-85
2021/03/07 21:54:27;;;;;;;22.40;13.00;;;1.90;99.40;;;;;;4938189;29;20519;-84
2021/03/07 21:56:53;;;;;;;19.13;11.83;;;1.80;99.90;;;;;;4938522;29;20605;-84
2021/03/07 21:59:20;;;;;;;18.53;11.47;;;1.80;99.90;;;;;;4938436;29;20487;-84
2021/03/07 22:01:47;;;;;;;23.43;13.70;;;1.80;99.90;;;;;;4938620;29;20410;-86
2021/03/07 22:04:13;;;;;;;20.10;11.30;;;1.70;99.90;;;;;;4938475;29;20430;-86
2021/03/07 22:06:39;;;;;;;22.17;13.17;;;1.70;99.90;;;;;;4938314;29;20824;-86
2021/03/07 22:09:06;;;;;;;18.93;12.50;;;1.70;99.90;;;;;;4938345;29;20433;-84
2021/03/07 22:11:32;;;;;;;23.07;13.20;;;1.70;99.90;;;;;;4938050;29;20521;-84
2021/03/07 22:13:59;;;;;;;19.90;11.97;;;1.60;99.90;;;;;;4938316;29;20439;-85
2021/03/07 22:16:25;;;;;;;23.27;12.97;;;1.60;99.90;;;;;;4938205;29;20475;-85
2021/03/07 22:18:52;;;;;;;24.20;13.00;;;1.50;99.90;;;;;;4938259;29;20444;-85
2021/03/07 22:21:18;;;;;;;23.43;13.03;;;1.50;99.90;;;;;;4937902;29;20467;-85
2021/03/07 22:23:45;;;;;;;22.40;11.50;;;1.50;99.90;;;;;;4937881;29;20542;-84
2021/03/07 22:26:14;;;;;;;19.90;12.40;;;1.50;99.90;;;;;;4937722;29;20456;-84
2021/03/07 22:28:41;;;;;;;17.00;11.53;;;1.50;99.90;;;;;;4937918;29;21019;-84
2021/03/07 22:31:07;;;;;;;27.77;12.83;;;1.40;99.90;;;;;;4938043;29;20431;-85
2021/03/07 22:33:34;;;;;;;20.23;12.67;;;1.40;99.90;;;;;;4937945;29;20420;-85
2021/03/07 22:36:02;;;;;;;22.20;12.30;;;1.40;99.90;;;;;;4937521;29;20442;-86
2021/03/07 22:38:29;;;;;;;20.63;11.97;;;1.40;99.90;;;;;;4938154;29;20450;-89
2021/03/07 22:40:55;;;;;;;18.57;11.47;;;1.40;99.90;;;;;;4938287;29;20467;-89
2021/03/07 22:43:21;;;;;;;24.00;12.70;;;1.40;99.90;;;;;;4938038;29;20435;-85
2021/03/07 22:45:47;;;;;;;22.63;12.50;;;1.30;99.90;;;;;;4937556;29;20475;-84
2021/03/07 22:48:16;;;;;;;23.23;13.63;;;1.30;99.90;;;;;;4937620;29;20414;-84
2021/03/07 22:50:42;;;;;;;19.50;12.27;;;1.30;99.90;;;;;;4937633;29;20469;-84
2021/03/07 22:53:09;;;;;;;21.93;12.50;;;1.20;99.90;;;;;;4937752;29;20439;-86
2021/03/07 22:55:36;;;;;;;17.03;11.67;;;1.20;99.90;;;;;;4937248;29;20449;-84
2021/03/07 22:58:02;;;;;;;20.53;12.20;;;1.20;99.90;;;;;;4938173;29;20455;-89
2021/03/07 23:00:29;;;;;;;21.40;12.63;;;1.20;99.90;;;;;;4937769;29;20450;-84